Time,TemperatureF,DewpointF,PressureIn,WindDirection,WindDirectionDegrees,WindSpeedMPH,WindSpeedGustMPH,Humidity,HourlyPrecipIn,Conditions,Clouds,dailyrainin,SolarRadiationWatts/m^2,SoftwareType,DateUTC
2013-04-25 00:00:00,34.2,25.5,29.87,North,-999,1.0,8.0,70,0.00,,,0.00,0.00,VWS V14.01,2013-04-25 06:00:00,
2013-04-25 00:05:00,34.1,25.4,29.87,North,-999,0.0,8.0,70,0.00,,,0.00,0.00,VWS V14.01,2013-04-25 06:05:00,
2013-04-25 00:10:00,33.9,25.5,29.87,North,-999,0.0,3.0,71,0.00,,,0.00,0.00,VWS V14.01,2013-04-25 06:10:00,
2013-04-25 00:15:00,33.9,25.5,29.87,North,-999,0.0,3.0,71,0.00,,,0.00,0.00,VWS V14.01,2013-04-25 06:15:00,
2013-04-25 00:20:00,33.8,25.4,29.87,North,-999,0.0,0.0,71,0.00,,,0.00,0.00,VWS V14.01,2013-04-25 06:20:00,
2013-04-25 00:25:00,33.8,25.4,29.87,North,-999,0.0,0.0,71,0.00,,,0.00,0.00,VWS V14.01,2013-04-25 06:25:00,
2013-04-25 00:30:00,33.7,25.3,29.87,North,-999,0.0,0.0,71,0.00,,,0.00,0.00,VWS V14.01,2013-04-25 06:30:00,
2013-04-25 00:36:00,33.8,25.4,29.87,North,-999,0.0,0.0,71,0.00,,,0.00,0.00,VWS V14.01,2013-04-25 06:36:00,
2013-04-25 00:41:00,33.6,25.2,29.87,North,-999,2.0,4.0,71,0.00,,,0.00,0.00,VWS V14.01,2013-04-25 06:41:00,
2013-04-25 00:45:00,33.4,25.4,29.87,North,-999,0.0,4.0,72,0.00,,,0.00,0.00,VWS V14.01,2013-04-25 06:45:00,
2013-04-25 00:50:00,33.3,25.3,29.87,North,-999,0.0,0.0,72,0.00,,,0.00,0.00,VWS V14.01,2013-04-25 06:50:00,
2013-04-25 00:55:00,33.3,25.3,29.87,North,-999,0.0,0.0,72,0.00,,,0.00,0.00,VWS V14.01,2013-04-25 06:55:00,
2013-04-25 01:00:00,33.2,25.2,29.87,North,-999,1.0,3.0,72,0.00,,,0.00,0.00,VWS V14.01,2013-04-25 07:00:00,
2013-04-25 01:05:00,33.1,25.1,29.87,North,-999,0.0,3.0,72,0.00,,,0.00,0.00,VWS V14.01,2013-04-25 07:05:00,
2013-04-25 01:10:00,32.9,26.8,29.87,North,-999,0.0,0.0,78,0.00,,,0.00,0.00,VWS V14.01,2013-04-25 07:10:00,
2013-04-25 01:15:00,32.8,25.1,29.87,North,-999,0.0,0.0,73,0.00,,,0.00,0.00,VWS V14.01,2013-04-25 07:15:00,
2013-04-25 01:20:00,32.8,25.1,29.87,North,-999,0.0,0.0,73,0.00,,,0.00,0.00,VWS V14.01,2013-04-25 07:20:00,
2013-04-25 01:25:00,32.8,25.1,29.87,North,-999,0.0,0.0,73,0.00,,,0.00,0.00,VWS V14.01,2013-04-25 07:25:00,
2013-04-25 01:30:00,32.8,25.4,29.87,North,-999,0.0,3.0,74,0.00,,,0.00,0.00,VWS V14.01,2013-04-25 07:30:00,
2013-04-25 01:35:00,32.8,25.1,29.86,North,-999,0.0,3.0,73,0.00,,,0.00,0.00,VWS V14.01,2013-04-25 07:35:00,
2013-04-25 01:40:00,32.9,25.2,29.87,North,-999,4.0,5.0,73,0.00,,,0.00,0.00,VWS V14.01,2013-04-25 07:40:00,
2013-04-25 01:45:00,33.0,25.3,29.86,North,-999,0.0,5.0,73,0.00,,,0.00,0.00,VWS V14.01,2013-04-25 07:45:00,
2013-04-25 01:50:00,32.9,25.2,29.86,North,-999,2.0,5.0,73,0.00,,,0.00,0.00,VWS V14.01,2013-04-25 07:50:00,
2013-04-25 01:55:00,32.4,24.7,29.86,North,-999,0.0,5.0,73,0.00,,,0.00,0.00,VWS V14.01,2013-04-25 07:55:00,
2013-04-25 02:00:00,32.1,24.8,29.86,North,-999,0.0,1.0,74,0.00,,,0.00,0.00,VWS V14.01,2013-04-25 08:00:00,
2013-04-25 02:05:00,32.1,25.1,29.87,North,-999,0.0,1.0,75,0.00,,,0.00,0.00,VWS V14.01,2013-04-25 08:05:00,
2013-04-25 02:10:00,32.2,24.9,29.86,North,-999,0.0,7.0,74,0.00,,,0.00,0.00,VWS V14.01,2013-04-25 08:10:00,
2013-04-25 02:15:00,32.3,25.3,29.86,North,-999,0.0,7.0,75,0.00,,,0.00,0.00,VWS V14.01,2013-04-25 08:15:00,
2013-04-25 02:20:00,32.5,25.5,29.86,North,-999,0.0,10.0,75,0.00,,,0.00,0.00,VWS V14.01,2013-04-25 08:20:00,
2013-04-25 02:25:00,32.5,25.1,29.86,North,-999,0.0,10.0,74,0.00,,,0.00,0.00,VWS V14.01,2013-04-25 08:25:00,
2013-04-25 02:30:00,32.6,25.2,29.86,North,-999,0.0,0.0,74,0.00,,,0.00,0.00,VWS V14.01,2013-04-25 08:30:00,
2013-04-25 02:35:00,32.6,25.6,29.86,North,-999,0.0,3.0,75,0.00,,,0.00,0.00,VWS V14.01,2013-04-25 08:35:00,
2013-04-25 02:40:00,32.7,25.7,29.86,North,-999,0.0,0.0,75,0.00,,,0.00,0.00,VWS V14.01,2013-04-25 08:40:00,
2013-04-25 02:45:00,32.6,25.2,29.86,North,-999,0.0,0.0,74,0.00,,,0.00,0.00,VWS V14.01,2013-04-25 08:45:00,
2013-04-25 02:50:00,32.7,25.3,29.86,North,-999,2.0,8.0,74,0.00,,,0.00,0.00,VWS V14.01,2013-04-25 08:50:00,
2013-04-25 02:55:00,32.7,25.3,29.85,North,-999,0.0,8.0,74,0.00,,,0.00,0.00,VWS V14.01,2013-04-25 08:55:00,
2013-04-25 03:00:00,32.8,25.4,29.86,North,-999,0.0,3.0,74,0.00,,,0.00,0.00,VWS V14.01,2013-04-25 09:00:00,
2013-04-25 03:05:00,32.6,25.2,29.85,North,-999,0.0,3.0,74,0.00,,,0.00,0.00,VWS V14.01,2013-04-25 09:05:00,
2013-04-25 03:10:00,32.6,25.2,29.85,North,-999,0.0,6.0,74,0.00,,,0.00,0.00,VWS V14.01,2013-04-25 09:10:00,
2013-04-25 03:15:00,32.8,25.4,29.85,North,-999,1.0,6.0,74,0.00,,,0.00,0.00,VWS V14.01,2013-04-25 09:15:00,
2013-04-25 03:20:00,32.9,25.5,29.85,North,-999,0.0,0.0,74,0.00,,,0.00,0.00,VWS V14.01,2013-04-25 09:20:00,
2013-04-25 03:25:00,32.9,25.5,29.85,North,-999,0.0,5.0,74,0.00,,,0.00,0.00,VWS V14.01,2013-04-25 09:25:00,
2013-04-25 03:30:00,32.8,25.4,29.85,North,-999,3.0,6.0,74,0.00,,,0.00,0.00,VWS V14.01,2013-04-25 09:30:00,
2013-04-25 03:35:00,32.8,25.4,29.85,North,-999,0.0,6.0,74,0.00,,,0.00,0.00,VWS V14.01,2013-04-25 09:35:00,
2013-04-25 03:40:00,32.7,25.3,29.85,North,-999,0.0,0.0,74,0.00,,,0.00,0.00,VWS V14.01,2013-04-25 09:40:00,
2013-04-25 03:45:00,32.6,25.2,29.85,North,-999,4.0,6.0,74,0.00,,,0.00,0.00,VWS V14.01,2013-04-25 09:45:00,
2013-04-25 03:50:00,32.7,25.3,29.85,North,-999,3.0,6.0,74,0.00,,,0.00,0.00,VWS V14.01,2013-04-25 09:50:00,
2013-04-25 03:55:00,32.7,25.3,29.85,North,-999,4.0,6.0,74,0.00,,,0.00,0.00,VWS V14.01,2013-04-25 09:55:00,
2013-04-25 04:00:00,33.0,25.6,29.85,North,-999,0.0,0.0,74,0.00,,,0.00,0.00,VWS V14.01,2013-04-25 10:00:00,
2013-04-25 04:05:00,33.1,25.4,29.85,North,-999,2.0,4.0,73,0.00,,,0.00,0.00,VWS V14.01,2013-04-25 10:05:00,
2013-04-25 04:10:00,33.1,25.4,29.85,North,-999,0.0,0.0,73,0.00,,,0.00,0.00,VWS V14.01,2013-04-25 10:10:00,
2013-04-25 04:15:00,33.1,25.4,29.85,North,-999,0.0,0.0,73,0.00,,,0.00,0.00,VWS V14.01,2013-04-25 10:15:00,
2013-04-25 04:20:00,33.1,25.4,29.85,North,-999,4.0,4.0,73,0.00,,,0.00,0.00,VWS V14.01,2013-04-25 10:20:00,
2013-04-25 04:25:00,33.1,25.4,29.85,North,-999,4.0,5.0,73,0.00,,,0.00,0.00,VWS V14.01,2013-04-25 10:25:00,
2013-04-25 04:30:00,33.2,25.5,29.85,North,-999,3.0,6.0,73,0.00,,,0.00,0.00,VWS V14.01,2013-04-25 10:30:00,
2013-04-25 04:35:00,33.3,25.6,29.85,North,-999,0.0,6.0,73,0.00,,,0.00,0.00,VWS V14.01,2013-04-25 10:35:00,
2013-04-25 04:40:00,33.3,25.6,29.85,North,-999,0.0,0.0,73,0.00,,,0.00,0.00,VWS V14.01,2013-04-25 10:40:00,
2013-04-25 04:45:00,33.4,25.7,29.85,North,-999,3.0,3.0,73,0.00,,,0.00,0.00,VWS V14.01,2013-04-25 10:45:00,
2013-04-25 04:50:00,33.5,25.8,29.85,North,-999,0.0,0.0,73,0.00,,,0.00,0.00,VWS V14.01,2013-04-25 10:50:00,
2013-04-25 04:55:00,33.6,25.9,29.85,North,-999,0.0,0.0,73,0.00,,,0.00,0.00,VWS V14.01,2013-04-25 10:55:00,
2013-04-25 05:00:00,33.5,25.8,29.85,North,-999,2.0,4.0,73,0.00,,,0.00,0.00,VWS V14.01,2013-04-25 11:00:00,
2013-04-25 05:05:00,33.3,25.9,29.85,North,-999,0.0,4.0,74,0.00,,,0.00,0.00,VWS V14.01,2013-04-25 11:05:00,
2013-04-25 05:10:00,33.2,25.8,29.85,North,-999,0.0,0.0,74,0.00,,,0.00,0.00,VWS V14.01,2013-04-25 11:10:00,
2013-04-25 05:15:00,33.0,25.3,29.85,North,-999,0.0,6.0,73,0.00,,,0.00,0.00,VWS V14.01,2013-04-25 11:15:00,
2013-04-25 05:20:00,32.7,25.7,29.85,North,-999,0.0,0.0,75,0.00,,,0.00,0.00,VWS V14.01,2013-04-25 11:20:00,
2013-04-25 05:25:00,32.9,25.9,29.85,North,-999,0.0,0.0,75,0.00,,,0.00,0.00,VWS V14.01,2013-04-25 11:25:00,
2013-04-25 05:30:00,33.1,26.0,29.85,North,-999,0.0,0.0,75,0.00,,,0.00,0.00,VWS V14.01,2013-04-25 11:30:00,
2013-04-25 05:35:00,33.3,26.2,29.85,North,-999,0.0,0.0,75,0.00,,,0.00,0.00,VWS V14.01,2013-04-25 11:35:00,
2013-04-25 05:40:00,33.3,25.9,29.85,North,-999,0.0,0.0,74,0.00,,,0.00,0.00,VWS V14.01,2013-04-25 11:40:00,
2013-04-25 05:45:00,33.3,25.9,29.85,North,-999,0.0,0.0,74,0.00,,,0.00,0.00,VWS V14.01,2013-04-25 11:45:00,
2013-04-25 05:50:00,33.2,25.5,29.84,North,-999,0.0,0.0,73,0.00,,,0.00,0.00,VWS V14.01,2013-04-25 11:50:00,
2013-04-25 05:55:00,33.4,25.7,29.84,North,-999,0.0,0.0,73,0.00,,,0.00,0.00,VWS V14.01,2013-04-25 11:55:00,
2013-04-25 06:00:00,33.8,25.7,29.84,North,-999,0.0,0.0,72,0.00,,,0.00,0.00,VWS V14.01,2013-04-25 12:00:00,
2013-04-25 06:05:00,34.4,26.3,29.84,North,-999,0.0,5.0,72,0.00,,,0.00,0.00,VWS V14.01,2013-04-25 12:05:00,
2013-04-25 06:10:00,34.9,26.1,29.84,North,-999,0.0,2.0,70,0.00,,,0.00,0.00,VWS V14.01,2013-04-25 12:10:00,
2013-04-25 06:15:00,35.8,25.6,29.84,North,-999,0.0,3.0,66,0.00,,,0.00,0.00,VWS V14.01,2013-04-25 12:15:00,
2013-04-25 06:20:00,36.1,25.9,29.84,North,-999,0.0,0.0,66,0.00,,,0.00,0.00,VWS V14.01,2013-04-25 12:20:00,
2013-04-25 06:25:00,36.0,25.0,29.84,North,-999,0.0,0.0,64,0.00,,,0.00,0.00,VWS V14.01,2013-04-25 12:25:00,
2013-04-25 06:30:00,37.1,24.1,29.84,North,-999,6.0,6.0,59,0.00,,,0.00,7.00,VWS V14.01,2013-04-25 12:30:00,
2013-04-25 06:34:00,38.5,24.2,29.83,North,-999,3.0,6.0,56,0.00,,,0.00,11.00,VWS V14.01,2013-04-25 12:34:00,
2013-04-25 06:39:00,39.4,23.2,29.83,North,-999,0.0,0.0,52,0.00,,,0.00,12.00,VWS V14.01,2013-04-25 12:39:00,
2013-04-25 06:44:00,40.1,23.9,29.83,North,-999,0.0,3.0,52,0.00,,,0.00,18.00,VWS V14.01,2013-04-25 12:44:00,
2013-04-25 06:49:00,39.8,24.1,29.84,North,-999,0.0,0.0,53,0.00,,,0.00,23.00,VWS V14.01,2013-04-25 12:49:00,
2013-04-25 06:54:00,39.6,24.3,29.84,North,-999,0.0,0.0,54,0.00,,,0.00,30.00,VWS V14.01,2013-04-25 12:54:00,
2013-04-25 06:59:00,38.6,25.1,29.84,North,-999,0.0,2.0,58,0.00,,,0.00,37.00,VWS V14.01,2013-04-25 12:59:00,
2013-04-25 07:04:00,38.5,24.6,29.84,North,-999,0.0,2.0,57,0.00,,,0.00,44.00,VWS V14.01,2013-04-25 13:04:00,
2013-04-25 07:09:00,39.1,23.9,29.84,North,-999,0.0,0.0,54,0.00,,,0.00,53.00,VWS V14.01,2013-04-25 13:09:00,
2013-04-25 07:14:00,40.3,23.1,29.84,North,-999,0.0,11.0,50,0.00,,,0.00,62.00,VWS V14.01,2013-04-25 13:14:00,
2013-04-25 07:19:00,41.0,22.8,29.83,North,-999,0.0,0.0,48,0.00,,,0.00,69.00,VWS V14.01,2013-04-25 13:19:00,
2013-04-25 07:24:00,41.5,25.7,29.84,North,-999,0.0,3.0,53,0.00,,,0.00,76.00,VWS V14.01,2013-04-25 13:24:00,
2013-04-25 07:29:00,40.4,26.0,29.84,North,-999,3.0,4.0,56,0.00,,,0.00,77.00,VWS V14.01,2013-04-25 13:29:00,
2013-04-25 07:34:00,39.8,25.0,29.83,North,-999,0.0,4.0,55,0.00,,,0.00,81.00,VWS V14.01,2013-04-25 13:34:00,
2013-04-25 07:39:00,39.3,25.8,29.84,North,-999,5.0,5.0,58,0.00,,,0.00,83.00,VWS V14.01,2013-04-25 13:39:00,
2013-04-25 07:44:00,39.6,24.8,29.84,North,-999,0.0,6.0,55,0.00,,,0.00,84.00,VWS V14.01,2013-04-25 13:44:00,
2013-04-25 07:49:00,40.4,25.1,29.84,North,-999,0.0,0.0,54,0.00,,,0.00,88.00,VWS V14.01,2013-04-25 13:49:00,
2013-04-25 07:54:00,40.9,22.7,29.84,North,-999,0.0,0.0,48,0.00,,,0.00,93.00,VWS V14.01,2013-04-25 13:54:00,
2013-04-25 07:59:00,43.2,22.8,29.84,North,-999,3.0,5.0,44,0.00,,,0.00,97.00,VWS V14.01,2013-04-25 13:59:00,
2013-04-25 08:04:00,44.1,23.6,29.84,North,-999,0.0,5.0,44,0.00,,,0.00,97.00,VWS V14.01,2013-04-25 14:04:00,
2013-04-25 08:09:00,44.0,25.1,29.84,North,-999,1.0,3.0,47,0.00,,,0.00,98.00,VWS V14.01,2013-04-25 14:09:00,
2013-04-25 08:14:00,43.6,24.7,29.84,North,-999,4.0,5.0,47,0.00,,,0.00,104.00,VWS V14.01,2013-04-25 14:14:00,
2013-04-25 08:19:00,43.4,23.5,29.84,North,-999,0.0,6.0,45,0.00,,,0.00,113.00,VWS V14.01,2013-04-25 14:19:00,
2013-04-25 08:24:00,44.6,21.8,29.84,North,-999,5.0,8.0,40,0.00,,,0.00,127.00,VWS V14.01,2013-04-25 14:24:00,
2013-04-25 08:29:00,46.5,21.0,29.84,North,-999,7.0,11.0,36,0.00,,,0.00,151.00,VWS V14.01,2013-04-25 14:29:00,
2013-04-25 08:34:00,48.1,19.6,29.84,North,-999,11.0,14.0,32,0.00,,,0.00,181.00,VWS V14.01,2013-04-25 14:34:00,
2013-04-25 08:39:00,48.5,20.7,29.84,North,-999,2.0,6.0,33,0.00,,,0.00,244.00,VWS V14.01,2013-04-25 14:39:00,
2013-04-25 08:44:00,48.5,20.7,29.84,North,-999,2.0,9.0,33,0.00,,,0.00,206.00,VWS V14.01,2013-04-25 14:44:00,
2013-04-25 08:49:00,45.8,26.7,29.84,North,-999,0.0,3.0,47,0.00,,,0.00,151.00,VWS V14.01,2013-04-25 14:49:00,
2013-04-25 08:54:00,44.2,27.2,29.83,North,-999,0.0,3.0,51,0.00,,,0.00,149.00,VWS V14.01,2013-04-25 14:54:00,
2013-04-25 08:59:00,44.0,27.0,29.83,North,-999,0.0,0.0,51,0.00,,,0.00,156.00,VWS V14.01,2013-04-25 14:59:00,
2013-04-25 09:04:00,43.8,27.8,29.83,North,-999,0.0,0.0,53,0.00,,,0.00,185.00,VWS V14.01,2013-04-25 15:04:00,
2013-04-25 09:09:00,44.1,27.6,29.83,North,-999,0.0,0.0,52,0.00,,,0.00,248.00,VWS V14.01,2013-04-25 15:09:00,
2013-04-25 09:14:00,44.3,28.7,29.83,North,-999,0.0,0.0,54,0.00,,,0.00,243.00,VWS V14.01,2013-04-25 15:14:00,
2013-04-25 09:19:00,44.8,29.2,29.83,North,-999,4.0,5.0,54,0.00,,,0.00,327.00,VWS V14.01,2013-04-25 15:19:00,
2013-04-25 09:24:00,44.5,29.8,29.83,North,-999,5.0,6.0,56,0.00,,,0.00,434.00,VWS V14.01,2013-04-25 15:24:00,
2013-04-25 09:29:00,44.3,29.6,29.83,North,-999,7.0,7.0,56,0.00,,,0.00,517.00,VWS V14.01,2013-04-25 15:29:00,
2013-04-25 09:34:00,45.0,28.9,29.82,North,-999,6.0,9.0,53,0.00,,,0.00,227.00,VWS V14.01,2013-04-25 15:34:00,
2013-04-25 09:39:00,45.5,28.9,29.82,North,-999,12.0,12.0,52,0.00,,,0.00,605.00,VWS V14.01,2013-04-25 15:39:00,
2013-04-25 09:44:00,47.0,28.3,29.83,North,-999,6.0,14.0,48,0.00,,,0.00,617.00,VWS V14.01,2013-04-25 15:44:00,
2013-04-25 09:49:00,47.0,28.3,29.82,North,-999,4.0,9.0,48,0.00,,,0.00,629.00,VWS V14.01,2013-04-25 15:49:00,
2013-04-25 09:54:00,47.6,28.4,29.82,North,-999,6.0,9.0,47,0.00,,,0.00,636.00,VWS V14.01,2013-04-25 15:54:00,
2013-04-25 09:59:00,48.8,27.9,29.82,North,-999,3.0,3.0,44,0.00,,,0.00,650.00,VWS V14.01,2013-04-25 15:59:00,
2013-04-25 10:04:00,49.7,26.4,29.82,North,-999,0.0,5.0,40,0.00,,,0.00,657.00,VWS V14.01,2013-04-25 16:04:00,
2013-04-25 10:09:00,50.6,27.2,29.82,North,-999,0.0,0.0,40,0.00,,,0.00,673.00,VWS V14.01,2013-04-25 16:09:00,
2013-04-25 10:14:00,51.5,26.8,29.82,North,-999,0.0,5.0,38,0.00,,,0.00,682.00,VWS V14.01,2013-04-25 16:14:00,
2013-04-25 10:19:00,52.7,22.2,29.81,North,-999,14.0,18.0,30,0.00,,,0.00,701.00,VWS V14.01,2013-04-25 16:19:00,
2013-04-25 10:24:00,54.0,23.3,29.81,North,-999,13.0,18.0,30,0.00,,,0.00,728.00,VWS V14.01,2013-04-25 16:24:00,
2013-04-25 10:29:00,54.6,20.4,29.81,North,-999,12.0,17.0,26,0.00,,,0.00,766.00,VWS V14.01,2013-04-25 16:29:00,
2013-04-25 10:34:00,54.7,21.4,29.81,North,-999,14.0,17.0,27,0.00,,,0.00,724.00,VWS V14.01,2013-04-25 16:34:00,
2013-04-25 10:39:00,54.6,19.5,29.81,North,-999,12.0,17.0,25,0.00,,,0.00,536.00,VWS V14.01,2013-04-25 16:39:00,
2013-04-25 10:44:00,54.5,20.3,29.81,North,-999,7.0,21.0,26,0.00,,,0.00,786.00,VWS V14.01,2013-04-25 16:44:00,
2013-04-25 10:49:00,55.1,19.9,29.80,North,-999,9.0,17.0,25,0.00,,,0.00,788.00,VWS V14.01,2013-04-25 16:49:00,
2013-04-25 10:54:00,55.7,19.5,29.80,North,-999,11.0,20.0,24,0.00,,,0.00,197.00,VWS V14.01,2013-04-25 16:54:00,
2013-04-25 10:59:00,55.5,18.3,29.80,North,-999,6.0,16.0,23,0.00,,,0.00,541.00,VWS V14.01,2013-04-25 16:59:00,
2013-04-25 11:04:00,55.5,18.3,29.80,North,-999,17.0,18.0,23,0.00,,,0.00,288.00,VWS V14.01,2013-04-25 17:04:00,
2013-04-25 11:09:00,56.2,17.9,29.80,North,-999,7.0,15.0,22,0.00,,,0.00,701.00,VWS V14.01,2013-04-25 17:09:00,
2013-04-25 11:14:00,56.6,17.1,29.80,North,-999,17.0,23.0,21,0.00,,,0.00,819.00,VWS V14.01,2013-04-25 17:14:00,
2013-04-25 11:19:00,57.9,17.1,29.80,North,-999,23.0,26.0,20,0.00,,,0.00,824.00,VWS V14.01,2013-04-25 17:19:00,
2013-04-25 11:24:00,58.1,17.3,29.80,North,-999,16.0,27.0,20,0.00,,,0.00,858.00,VWS V14.01,2013-04-25 17:24:00,
2013-04-25 11:29:00,58.7,17.8,29.80,North,-999,19.0,24.0,20,0.00,,,0.00,907.00,VWS V14.01,2013-04-25 17:29:00,
2013-04-25 11:34:00,59.6,16.1,29.80,North,-999,27.0,31.0,18,0.00,,,0.00,937.00,VWS V14.01,2013-04-25 17:34:00,
2013-04-25 11:39:00,59.5,16.0,29.79,North,-999,29.0,33.0,18,0.00,,,0.00,900.00,VWS V14.01,2013-04-25 17:39:00,
2013-04-25 11:44:00,59.0,15.6,29.80,North,-999,21.0,33.0,18,0.00,,,0.00,195.00,VWS V14.01,2013-04-25 17:44:00,
2013-04-25 11:49:00,57.9,14.7,29.79,North,-999,19.0,22.0,18,0.00,,,0.00,304.00,VWS V14.01,2013-04-25 17:49:00,
2013-04-25 11:54:00,58.1,16.1,29.80,North,-999,13.0,25.0,19,0.00,,,0.00,334.00,VWS V14.01,2013-04-25 17:54:00,
2013-04-25 11:59:00,58.2,14.9,29.80,North,-999,25.0,27.0,18,0.00,,,0.00,271.00,VWS V14.01,2013-04-25 17:59:00,
2013-04-25 12:04:00,57.7,14.5,29.79,North,-999,16.0,27.0,18,0.00,,,0.00,308.00,VWS V14.01,2013-04-25 18:04:00,
2013-04-25 12:09:00,58.2,13.6,29.79,North,-999,25.0,29.0,17,0.00,,,0.00,165.00,VWS V14.01,2013-04-25 18:09:00,
2013-04-25 12:14:00,57.9,14.7,29.79,North,-999,24.0,33.0,18,0.00,,,0.00,195.00,VWS V14.01,2013-04-25 18:14:00,
2013-04-25 12:19:00,58.2,16.2,29.79,North,-999,21.0,25.0,19,0.00,,,0.00,339.00,VWS V14.01,2013-04-25 18:19:00,
2013-04-25 12:24:00,58.9,16.7,29.79,North,-999,21.0,29.0,19,0.00,,,0.00,904.00,VWS V14.01,2013-04-25 18:24:00,
2013-04-25 12:29:00,59.5,17.2,29.79,North,-999,21.0,27.0,19,0.00,,,0.00,907.00,VWS V14.01,2013-04-25 18:29:00,
2013-04-25 12:34:00,60.1,17.7,29.79,North,-999,18.0,29.0,19,0.00,,,0.00,919.00,VWS V14.01,2013-04-25 18:34:00,
2013-04-25 12:39:00,60.3,16.6,29.78,North,-999,24.0,29.0,18,0.00,,,0.00,930.00,VWS V14.01,2013-04-25 18:39:00,
2013-04-25 12:44:00,60.4,18.0,29.78,North,-999,16.0,29.0,19,0.00,,,0.00,923.00,VWS V14.01,2013-04-25 18:44:00,
2013-04-25 12:49:00,60.4,18.0,29.78,North,-999,25.0,29.0,19,0.00,,,0.00,921.00,VWS V14.01,2013-04-25 18:49:00,
2013-04-25 12:54:00,60.0,17.6,29.78,North,-999,27.0,29.0,19,0.00,,,0.00,925.00,VWS V14.01,2013-04-25 18:54:00,
2013-04-25 12:59:00,60.6,18.1,29.78,North,-999,21.0,27.0,19,0.00,,,0.00,921.00,VWS V14.01,2013-04-25 18:59:00,
2013-04-25 13:04:00,60.9,18.4,29.78,North,-999,17.0,29.0,19,0.00,,,0.00,919.00,VWS V14.01,2013-04-25 19:04:00,
2013-04-25 13:09:00,59.9,18.8,29.78,North,-999,23.0,23.0,20,0.00,,,0.00,918.00,VWS V14.01,2013-04-25 19:09:00,
2013-04-25 13:14:00,61.4,18.8,29.77,North,-999,22.0,30.0,19,0.00,,,0.00,921.00,VWS V14.01,2013-04-25 19:14:00,
2013-04-25 13:19:00,60.9,19.6,29.77,North,-999,18.0,21.0,20,0.00,,,0.00,921.00,VWS V14.01,2013-04-25 19:19:00,
2013-04-25 13:24:00,60.4,19.2,29.77,North,-999,24.0,24.0,20,0.00,,,0.00,918.00,VWS V14.01,2013-04-25 19:24:00,
2013-04-25 13:28:00,61.2,19.8,29.77,North,-999,15.0,22.0,20,0.00,,,0.00,921.00,VWS V14.01,2013-04-25 19:28:00,
2013-04-25 13:33:00,61.2,18.6,29.76,North,-999,24.0,26.0,19,0.00,,,0.00,919.00,VWS V14.01,2013-04-25 19:33:00,
2013-04-25 13:38:00,61.4,18.8,29.76,North,-999,17.0,18.0,19,0.00,,,0.00,918.00,VWS V14.01,2013-04-25 19:38:00,
2013-04-25 13:43:00,61.3,17.5,29.77,North,-999,17.0,32.0,18,0.00,,,0.00,919.00,VWS V14.01,2013-04-25 19:43:00,
2013-04-25 13:48:00,60.7,18.2,29.77,North,-999,10.0,16.0,19,0.00,,,0.00,914.00,VWS V14.01,2013-04-25 19:48:00,
2013-04-25 13:53:00,61.1,18.5,29.77,North,-999,25.0,25.0,19,0.00,,,0.00,905.00,VWS V14.01,2013-04-25 19:53:00,
2013-04-25 13:58:00,61.1,18.5,29.77,North,-999,7.0,15.0,19,0.00,,,0.00,925.00,VWS V14.01,2013-04-25 19:58:00,
2013-04-25 14:03:00,61.7,19.0,29.76,North,-999,12.0,26.0,19,0.00,,,0.00,916.00,VWS V14.01,2013-04-25 20:03:00,
2013-04-25 14:08:00,61.8,17.9,29.76,North,-999,9.0,16.0,18,0.00,,,0.00,914.00,VWS V14.01,2013-04-25 20:08:00,
2013-04-25 14:13:00,61.5,20.1,29.76,North,-999,12.0,20.0,20,0.00,,,0.00,914.00,VWS V14.01,2013-04-25 20:13:00,
2013-04-25 14:18:00,62.1,19.4,29.76,North,-999,16.0,17.0,19,0.00,,,0.00,909.00,VWS V14.01,2013-04-25 20:18:00,
2013-04-25 14:23:00,62.1,19.4,29.76,North,-999,19.0,21.0,19,0.00,,,0.00,909.00,VWS V14.01,2013-04-25 20:23:00,
2013-04-25 14:28:00,62.4,18.4,29.76,North,-999,6.0,11.0,18,0.00,,,0.00,926.00,VWS V14.01,2013-04-25 20:28:00,
2013-04-25 14:33:00,62.8,20.0,29.76,North,-999,14.0,18.0,19,0.00,,,0.00,921.00,VWS V14.01,2013-04-25 20:33:00,
2013-04-25 14:38:00,62.3,19.5,29.75,North,-999,9.0,10.0,19,0.00,,,0.00,933.00,VWS V14.01,2013-04-25 20:38:00,
2013-04-25 14:43:00,62.6,18.5,29.75,North,-999,14.0,22.0,18,0.00,,,0.00,926.00,VWS V14.01,2013-04-25 20:43:00,
2013-04-25 14:48:00,62.8,18.7,29.76,North,-999,18.0,21.0,18,0.00,,,0.00,912.00,VWS V14.01,2013-04-25 20:48:00,
2013-04-25 14:53:00,63.1,18.9,29.75,North,-999,21.0,22.0,18,0.00,,,0.00,891.00,VWS V14.01,2013-04-25 20:53:00,
2013-04-25 14:58:00,63.2,19.0,29.75,North,-999,7.0,9.0,18,0.00,,,0.00,882.00,VWS V14.01,2013-04-25 20:58:00,
2013-04-25 15:03:00,63.1,18.9,29.76,North,-999,24.0,25.0,18,0.00,,,0.00,895.00,VWS V14.01,2013-04-25 21:03:00,
2013-04-25 15:08:00,63.1,18.9,29.76,North,-999,18.0,18.0,18,0.00,,,0.00,912.00,VWS V14.01,2013-04-25 21:08:00,
2013-04-25 15:13:00,62.5,18.5,29.75,North,-999,3.0,21.0,18,0.00,,,0.00,292.00,VWS V14.01,2013-04-25 21:13:00,
2013-04-25 15:18:00,62.8,18.7,29.75,North,-999,19.0,24.0,18,0.00,,,0.00,849.00,VWS V14.01,2013-04-25 21:18:00,
2013-04-25 15:23:00,63.4,19.2,29.75,North,-999,13.0,24.0,18,0.00,,,0.00,895.00,VWS V14.01,2013-04-25 21:23:00,
2013-04-25 15:28:00,63.7,19.4,29.75,North,-999,18.0,18.0,18,0.00,,,0.00,965.00,VWS V14.01,2013-04-25 21:28:00,
2013-04-25 15:33:00,63.9,18.3,29.75,North,-999,10.0,23.0,17,0.00,,,0.00,888.00,VWS V14.01,2013-04-25 21:33:00,
2013-04-25 15:38:00,63.9,19.6,29.75,North,-999,16.0,24.0,18,0.00,,,0.00,886.00,VWS V14.01,2013-04-25 21:38:00,
2013-04-25 15:43:00,64.1,19.8,29.75,North,-999,22.0,25.0,18,0.00,,,0.00,835.00,VWS V14.01,2013-04-25 21:43:00,
2013-04-25 15:48:00,63.7,19.4,29.75,North,-999,10.0,14.0,18,0.00,,,0.00,851.00,VWS V14.01,2013-04-25 21:48:00,
2013-04-25 15:53:00,63.8,19.5,29.75,North,-999,19.0,21.0,18,0.00,,,0.00,874.00,VWS V14.01,2013-04-25 21:53:00,
2013-04-25 15:58:00,63.8,18.2,29.75,North,-999,15.0,21.0,17,0.00,,,0.00,872.00,VWS V14.01,2013-04-25 21:58:00,
2013-04-25 16:03:00,63.8,19.5,29.75,North,-999,11.0,21.0,18,0.00,,,0.00,657.00,VWS V14.01,2013-04-25 22:03:00,
2013-04-25 16:08:00,63.6,19.4,29.75,North,-999,7.0,11.0,18,0.00,,,0.00,297.00,VWS V14.01,2013-04-25 22:08:00,
2013-04-25 16:13:00,63.3,19.1,29.75,North,-999,22.0,22.0,18,0.00,,,0.00,872.00,VWS V14.01,2013-04-25 22:13:00,
2013-04-25 16:18:00,64.0,19.7,29.75,North,-999,16.0,16.0,18,0.00,,,0.00,668.00,VWS V14.01,2013-04-25 22:18:00,
2013-04-25 16:23:00,63.5,19.3,29.75,North,-999,13.0,18.0,18,0.00,,,0.00,810.00,VWS V14.01,2013-04-25 22:23:00,
2013-04-25 16:28:00,63.6,18.0,29.75,North,-999,7.0,10.0,17,0.00,,,0.00,670.00,VWS V14.01,2013-04-25 22:28:00,
2013-04-25 16:33:00,63.9,18.3,29.75,North,-999,16.0,20.0,17,0.00,,,0.00,763.00,VWS V14.01,2013-04-25 22:33:00,
2013-04-25 16:38:00,63.9,19.6,29.75,North,-999,18.0,19.0,18,0.00,,,0.00,701.00,VWS V14.01,2013-04-25 22:38:00,
2013-04-25 16:43:00,63.6,19.4,29.75,North,-999,10.0,25.0,18,0.00,,,0.00,269.00,VWS V14.01,2013-04-25 22:43:00,
2013-04-25 16:48:00,63.6,19.4,29.75,North,-999,12.0,12.0,18,0.00,,,0.00,369.00,VWS V14.01,2013-04-25 22:48:00,
2013-04-25 16:53:00,64.3,19.9,29.75,North,-999,24.0,27.0,18,0.00,,,0.00,251.00,VWS V14.01,2013-04-25 22:53:00,
2013-04-25 16:58:00,63.5,17.9,29.75,North,-999,11.0,13.0,17,0.00,,,0.00,279.00,VWS V14.01,2013-04-25 22:58:00,
2013-04-25 17:03:00,64.0,19.7,29.75,North,-999,19.0,25.0,18,0.00,,,0.00,216.00,VWS V14.01,2013-04-25 23:03:00,
2013-04-25 17:08:00,63.8,19.5,29.75,North,-999,18.0,20.0,18,0.00,,,0.00,214.00,VWS V14.01,2013-04-25 23:08:00,
2013-04-25 17:13:00,63.4,19.2,29.75,North,-999,15.0,24.0,18,0.00,,,0.00,195.00,VWS V14.01,2013-04-25 23:13:00,
2013-04-25 17:18:00,63.4,19.2,29.75,North,-999,21.0,21.0,18,0.00,,,0.00,192.00,VWS V14.01,2013-04-25 23:18:00,
2013-04-25 17:23:00,63.7,18.1,29.75,North,-999,12.0,31.0,17,0.00,,,0.00,348.00,VWS V14.01,2013-04-25 23:23:00,
2013-04-25 17:28:00,64.0,18.3,29.76,North,-999,7.0,7.0,17,0.00,,,0.00,513.00,VWS V14.01,2013-04-25 23:28:00,
2013-04-25 17:33:00,64.2,19.8,29.76,North,-999,15.0,19.0,18,0.00,,,0.00,496.00,VWS V14.01,2013-04-25 23:33:00,
2013-04-25 17:38:00,64.8,20.3,29.76,North,-999,26.0,26.0,18,0.00,,,0.00,483.00,VWS V14.01,2013-04-25 23:38:00,
2013-04-25 17:43:00,64.1,19.8,29.76,North,-999,19.0,26.0,18,0.00,,,0.00,492.00,VWS V14.01,2013-04-25 23:43:00,
2013-04-25 17:48:00,64.2,19.8,29.76,North,-999,11.0,11.0,18,0.00,,,0.00,469.00,VWS V14.01,2013-04-25 23:48:00,
2013-04-25 17:53:00,63.8,18.2,29.76,North,-999,11.0,16.0,17,0.00,,,0.00,183.00,VWS V14.01,2013-04-25 23:53:00,
2013-04-25 17:58:00,63.7,18.1,29.76,North,-999,14.0,15.0,17,0.00,,,0.00,216.00,VWS V14.01,2013-04-25 23:58:00,
2013-04-25 18:03:00,63.8,18.2,29.77,North,-999,12.0,20.0,17,0.00,,,0.00,223.00,VWS V14.01,2013-04-26 00:03:00,
2013-04-25 18:08:00,63.5,19.3,29.77,North,-999,12.0,12.0,18,0.00,,,0.00,125.00,VWS V14.01,2013-04-26 00:08:00,
2013-04-25 18:13:00,63.1,18.9,29.77,North,-999,7.0,14.0,18,0.00,,,0.00,144.00,VWS V14.01,2013-04-26 00:13:00,
2013-04-25 18:18:00,63.0,18.9,29.77,North,-999,12.0,12.0,18,0.00,,,0.00,139.00,VWS V14.01,2013-04-26 00:18:00,
2013-04-25 18:23:00,63.1,18.9,29.77,North,-999,15.0,17.0,18,0.00,,,0.00,246.00,VWS V14.01,2013-04-26 00:23:00,
2013-04-25 18:28:00,63.6,19.4,29.77,North,-999,12.0,17.0,18,0.00,,,0.00,315.00,VWS V14.01,2013-04-26 00:28:00,
2013-04-25 18:33:00,63.8,19.5,29.77,North,-999,13.0,13.0,18,0.00,,,0.00,109.00,VWS V14.01,2013-04-26 00:33:00,
2013-04-25 18:38:00,63.4,19.2,29.77,North,-999,10.0,10.0,18,0.00,,,0.00,105.00,VWS V14.01,2013-04-26 00:38:00,
2013-04-25 18:43:00,63.2,20.3,29.77,North,-999,12.0,14.0,19,0.00,,,0.00,229.00,VWS V14.01,2013-04-26 00:43:00,
2013-04-25 18:48:00,63.4,19.2,29.78,North,-999,13.0,14.0,18,0.00,,,0.00,178.00,VWS V14.01,2013-04-26 00:48:00,
2013-04-25 18:53:00,63.5,19.3,29.78,North,-999,8.0,14.0,18,0.00,,,0.00,172.00,VWS V14.01,2013-04-26 00:53:00,
2013-04-25 18:58:00,63.3,19.1,29.78,North,-999,9.0,16.0,18,0.00,,,0.00,128.00,VWS V14.01,2013-04-26 00:58:00,
2013-04-25 19:03:00,63.1,18.9,29.78,North,-999,6.0,17.0,18,0.00,,,0.00,114.00,VWS V14.01,2013-04-26 01:03:00,
2013-04-25 19:08:00,63.0,18.9,29.78,North,-999,11.0,17.0,18,0.00,,,0.00,104.00,VWS V14.01,2013-04-26 01:08:00,
2013-04-25 19:13:00,62.8,20.0,29.78,North,-999,11.0,19.0,19,0.00,,,0.00,84.00,VWS V14.01,2013-04-26 01:13:00,
2013-04-25 19:18:00,62.5,20.9,29.78,North,-999,6.0,19.0,20,0.00,,,0.00,76.00,VWS V14.01,2013-04-26 01:18:00,
2013-04-25 19:23:00,62.3,21.9,29.78,North,-999,8.0,8.0,21,0.00,,,0.00,84.00,VWS V14.01,2013-04-26 01:23:00,
2013-04-25 19:28:00,62.2,19.5,29.78,North,-999,11.0,20.0,19,0.00,,,0.00,69.00,VWS V14.01,2013-04-26 01:28:00,
2013-04-25 19:33:00,62.2,20.7,29.78,North,-999,16.0,29.0,20,0.00,,,0.00,62.00,VWS V14.01,2013-04-26 01:33:00,
2013-04-25 19:37:00,62.2,20.7,29.79,North,-999,11.0,29.0,20,0.00,,,0.00,49.00,VWS V14.01,2013-04-26 01:37:00,
2013-04-25 19:42:00,62.2,20.7,29.79,North,-999,8.0,21.0,20,0.00,,,0.00,40.00,VWS V14.01,2013-04-26 01:42:00,
2013-04-25 19:47:00,62.2,21.8,29.79,North,-999,7.0,21.0,21,0.00,,,0.00,33.00,VWS V14.01,2013-04-26 01:47:00,
2013-04-25 19:52:00,62.1,20.6,29.79,North,-999,4.0,8.0,20,0.00,,,0.00,28.00,VWS V14.01,2013-04-26 01:52:00,
2013-04-25 19:57:00,61.8,21.5,29.79,North,-999,4.0,8.0,21,0.00,,,0.00,19.00,VWS V14.01,2013-04-26 01:57:00,
2013-04-25 20:02:00,61.6,21.3,29.80,North,-999,0.0,6.0,21,0.00,,,0.00,14.00,VWS V14.01,2013-04-26 02:02:00,
2013-04-25 20:07:00,61.4,21.1,29.80,North,-999,0.0,6.0,21,0.00,,,0.00,7.00,VWS V14.01,2013-04-26 02:07:00,
2013-04-25 20:12:00,61.2,21.0,29.80,North,-999,0.0,2.0,21,0.00,,,0.00,0.00,VWS V14.01,2013-04-26 02:12:00,
2013-04-25 20:17:00,60.9,20.7,29.80,North,-999,0.0,3.0,21,0.00,,,0.00,0.00,VWS V14.01,2013-04-26 02:17:00,
2013-04-25 20:22:00,60.8,21.7,29.80,North,-999,0.0,3.0,22,0.00,,,0.00,0.00,VWS V14.01,2013-04-26 02:22:00,
2013-04-25 20:27:00,60.4,21.4,29.81,North,-999,0.0,3.0,22,0.00,,,0.00,0.00,VWS V14.01,2013-04-26 02:27:00,
2013-04-25 20:32:00,60.0,21.1,29.81,North,-999,0.0,0.0,22,0.00,,,0.00,0.00,VWS V14.01,2013-04-26 02:32:00,
2013-04-25 20:37:00,59.7,20.8,29.81,North,-999,0.0,0.0,22,0.00,,,0.00,0.00,VWS V14.01,2013-04-26 02:37:00,
2013-04-25 20:42:00,59.5,20.6,29.81,North,-999,0.0,0.0,22,0.00,,,0.00,0.00,VWS V14.01,2013-04-26 02:42:00,
2013-04-25 20:47:00,59.2,20.4,29.82,North,-999,0.0,0.0,22,0.00,,,0.00,0.00,VWS V14.01,2013-04-26 02:47:00,
2013-04-25 20:52:00,59.0,21.3,29.82,North,-999,0.0,0.0,23,0.00,,,0.00,0.00,VWS V14.01,2013-04-26 02:52:00,
2013-04-25 20:57:00,59.0,21.3,29.82,North,-999,2.0,4.0,23,0.00,,,0.00,0.00,VWS V14.01,2013-04-26 02:57:00,
2013-04-25 21:02:00,59.0,20.2,29.82,North,-999,0.0,2.0,22,0.00,,,0.00,0.00,VWS V14.01,2013-04-26 03:02:00,
2013-04-25 21:07:00,59.2,20.4,29.83,North,-999,0.0,2.0,22,0.00,,,0.00,0.00,VWS V14.01,2013-04-26 03:07:00,
2013-04-25 21:12:00,59.2,20.4,29.83,North,-999,0.0,0.0,22,0.00,,,0.00,0.00,VWS V14.01,2013-04-26 03:12:00,
2013-04-25 21:17:00,59.3,20.5,29.83,North,-999,0.0,0.0,22,0.00,,,0.00,0.00,VWS V14.01,2013-04-26 03:17:00,
2013-04-25 21:22:00,59.2,21.4,29.83,North,-999,0.0,0.0,23,0.00,,,0.00,0.00,VWS V14.01,2013-04-26 03:22:00,
2013-04-25 21:27:00,58.9,21.2,29.84,North,-999,0.0,0.0,23,0.00,,,0.00,0.00,VWS V14.01,2013-04-26 03:27:00,
2013-04-25 21:32:00,56.9,21.5,29.84,North,-999,0.0,6.0,25,0.00,,,0.00,0.00,VWS V14.01,2013-04-26 03:32:00,
2013-04-25 21:37:00,55.0,20.8,29.85,North,-999,4.0,6.0,26,0.00,,,0.00,0.00,VWS V14.01,2013-04-26 03:37:00,
2013-04-25 21:42:00,53.5,20.4,29.85,North,-999,1.0,6.0,27,0.00,,,0.00,0.00,VWS V14.01,2013-04-26 03:42:00,
2013-04-25 21:47:00,53.4,21.1,29.85,North,-999,0.0,6.0,28,0.00,,,0.00,0.00,VWS V14.01,2013-04-26 03:47:00,
2013-04-25 21:52:00,53.0,20.8,29.85,North,-999,0.0,0.0,28,0.00,,,0.00,0.00,VWS V14.01,2013-04-26 03:52:00,
2013-04-25 21:57:00,52.0,19.9,29.86,North,-999,0.0,4.0,28,0.00,,,0.00,0.00,VWS V14.01,2013-04-26 03:57:00,
2013-04-25 22:01:00,51.3,20.9,29.86,North,-999,0.0,0.0,30,0.00,,,0.00,0.00,VWS V14.01,2013-04-26 04:01:00,
2013-04-25 22:06:00,51.7,20.5,29.86,North,-999,0.0,1.0,29,0.00,,,0.00,0.00,VWS V14.01,2013-04-26 04:06:00,
2013-04-25 22:11:00,51.8,20.6,29.86,North,-999,0.0,0.0,29,0.00,,,0.00,0.00,VWS V14.01,2013-04-26 04:11:00,
2013-04-25 22:16:00,51.5,21.1,29.86,North,-999,0.0,0.0,30,0.00,,,0.00,0.00,VWS V14.01,2013-04-26 04:16:00,
2013-04-25 22:21:00,51.6,21.2,29.86,North,-999,0.0,0.0,30,0.00,,,0.00,0.00,VWS V14.01,2013-04-26 04:21:00,
2013-04-25 22:26:00,51.8,20.6,29.87,North,-999,1.0,2.0,29,0.00,,,0.00,0.00,VWS V14.01,2013-04-26 04:26:00,
2013-04-25 22:31:00,52.5,20.4,29.86,North,-999,0.0,1.0,28,0.00,,,0.00,0.00,VWS V14.01,2013-04-26 04:31:00,
2013-04-25 22:36:00,53.4,22.8,29.87,North,-999,0.0,5.0,30,0.00,,,0.00,0.00,VWS V14.01,2013-04-26 04:36:00,
2013-04-25 22:41:00,53.2,21.0,29.87,North,-999,0.0,0.0,28,0.00,,,0.00,0.00,VWS V14.01,2013-04-26 04:41:00,
2013-04-25 22:46:00,52.8,23.0,29.87,North,-999,1.0,8.0,31,0.00,,,0.00,0.00,VWS V14.01,2013-04-26 04:46:00,
2013-04-25 22:51:00,52.2,22.5,29.87,North,-999,0.0,0.0,31,0.00,,,0.00,0.00,VWS V14.01,2013-04-26 04:51:00,
2013-04-25 22:56:00,52.0,22.3,29.87,North,-999,0.0,0.0,31,0.00,,,0.00,0.00,VWS V14.01,2013-04-26 04:56:00,
2013-04-25 23:01:00,51.8,22.9,29.87,North,-999,0.0,0.0,32,0.00,,,0.00,0.00,VWS V14.01,2013-04-26 05:01:00,
2013-04-25 23:06:00,51.5,21.9,29.87,North,-999,0.0,0.0,31,0.00,,,0.00,0.00,VWS V14.01,2013-04-26 05:06:00,
2013-04-25 23:11:00,51.6,22.0,29.87,North,-999,1.0,1.0,31,0.00,,,0.00,0.00,VWS V14.01,2013-04-26 05:11:00,
2013-04-25 23:16:00,49.5,20.1,29.88,North,-999,5.0,5.0,31,0.00,,,0.00,0.00,VWS V14.01,2013-04-26 05:16:00,
2013-04-25 23:21:00,49.9,22.0,29.87,North,-999,0.0,5.0,33,0.00,,,0.00,0.00,VWS V14.01,2013-04-26 05:21:00,
2013-04-25 23:26:00,50.4,20.9,29.88,North,-999,4.0,5.0,31,0.00,,,0.00,0.00,VWS V14.01,2013-04-26 05:26:00,
2013-04-25 23:31:00,50.4,20.1,29.88,North,-999,5.0,7.0,30,0.00,,,0.00,0.00,VWS V14.01,2013-04-26 05:31:00,
2013-04-25 23:36:00,51.3,21.7,29.88,North,-999,1.0,7.0,31,0.00,,,0.00,0.00,VWS V14.01,2013-04-26 05:36:00,
2013-04-25 23:41:00,52.6,22.1,29.88,North,-999,3.0,4.0,30,0.00,,,0.00,0.00,VWS V14.01,2013-04-26 05:41:00,
2013-04-25 23:46:00,53.4,22.8,29.88,North,-999,8.0,12.0,30,0.00,,,0.00,0.00,VWS V14.01,2013-04-26 05:46:00,
2013-04-25 23:51:00,54.5,22.9,29.88,North,-999,10.0,13.0,29,0.00,,,0.00,0.00,VWS V14.01,2013-04-26 05:51:00,
2013-04-25 23:56:00,54.4,23.6,29.88,North,-999,10.0,13.0,30,0.00,,,0.00,0.00,VWS V14.01,2013-04-26 05:56:00,